»·PEaware :: SWA2482 KRNO-KSJC

SWA2482 :: KRNO-KSJC

FLIGHT INFORMATION

Flight Status: Arrived
Operator:
Southwest Airlines
More flights by this operator :: More flights under this callsign
Pilot: Marissa K. (19829)
Aircraft: BOEING 737-800
(B738)
More flights by this aircraft type
Origin: KRNO Reno/Tahoe Intl
United States
Destination: KSJC Mineta San Jose Intl
United States
More flights between these airports :: More routes between these airports
Route: +PVINE3 CRDDZ DARBI STUBL RAZRR4
File this flight plan on PilotEdge
Remarks: RMK / NEW PILOT
Altitude:
(Current/Filed)
28,000ft
Speed:
(Current/Filed)
490kts
Departed: 09-Aug-18 08:55 PM
Arrived: 09-Aug-18 09:41 PM
Distance/Time
Traveled:
163nm/0:46
Distance/Time
To Go:
Arrived

Flight Plot

Page will automatically refresh every two minutes.

Flight plan parsing failed; only flown route is shown


Map Options




Map Legend


Flown Route
Filed Route
Departure Airport
Arrival Airport
Navaid (VOR, NDB)
Fix

Horizontal Profiles

Position Reports

Time Latitude Longitude Heading Altitude Ground
Speed
09-Aug-18 20:25 39.504383 -119.774229 16 4414ft 0kts
09-Aug-18 20:26 39.504383 -119.774229 16 4414ft 0kts
09-Aug-18 20:27 39.504383 -119.774229 16 4414ft 0kts
09-Aug-18 20:28 39.504383 -119.774229 16 4414ft 0kts
09-Aug-18 20:29 39.504383 -119.774229 16 4414ft 0kts
09-Aug-18 20:30 39.504383 -119.774229 16 4414ft 0kts
09-Aug-18 20:31 39.504383 -119.774229 16 4414ft 0kts
09-Aug-18 20:32 39.504383 -119.774229 16 4414ft 0kts
09-Aug-18 20:33 39.504383 -119.774229 16 4414ft 0kts
09-Aug-18 20:34 39.504383 -119.774229 16 4414ft 0kts
09-Aug-18 20:35 39.504383 -119.774229 16 4414ft 0kts
09-Aug-18 20:36 39.504383 -119.774229 16 4414ft 0kts
09-Aug-18 20:37 39.504383 -119.774229 16 4414ft 0kts
09-Aug-18 20:38 39.504383 -119.774229 16 4414ft 0kts
09-Aug-18 20:39 39.504383 -119.774229 16 4414ft 0kts
09-Aug-18 20:40 39.504383 -119.774229 16 4414ft 0kts
09-Aug-18 20:41 39.504383 -119.774229 16 4414ft 0kts
09-Aug-18 20:42 39.504266 -119.774380 40 4414ft 1kts
09-Aug-18 20:43 39.503976 -119.773982 323 4414ft 1kts
09-Aug-18 20:44 39.503727 -119.774236 89 4414ft 0kts
09-Aug-18 20:45 39.503727 -119.774235 89 4414ft 0kts
09-Aug-18 20:46 39.503727 -119.774211 89 4414ft 0kts
09-Aug-18 20:47 39.503734 -119.773152 89 4413ft 0kts
09-Aug-18 20:48 39.503734 -119.773152 89 4413ft 0kts
09-Aug-18 20:49 39.503588 -119.771677 135 4411ft 12kts
09-Aug-18 20:50 39.498953 -119.771519 180 4410ft 22kts
09-Aug-18 20:51 39.492285 -119.771536 181 4410ft 32kts
09-Aug-18 20:52 39.486086 -119.771549 179 4415ft 9kts
09-Aug-18 20:53 39.483799 -119.770646 91 4419ft 0kts
09-Aug-18 20:54 39.483799 -119.770646 91 4419ft 0kts
09-Aug-18 20:55 39.485236 -119.769323 359 4417ft 20kts
09-Aug-18 20:56 39.504348 -119.769033 358 4472ft 183kts
09-Aug-18 20:57 39.558621 -119.768276 359 6773ft 220kts
09-Aug-18 20:58 39.615452 -119.805684 298 8956ft 281kts
09-Aug-18 20:59 39.624767 -119.906510 236 11997ft 331kts
09-Aug-18 21:00 39.538456 -119.931338 173 15509ft 354kts
09-Aug-18 21:01 39.439539 -119.914279 174 18876ft 367kts
09-Aug-18 21:02 39.337353 -119.897508 175 22061ft 378kts
09-Aug-18 21:03 39.232852 -119.880574 174 24915ft 387kts
09-Aug-18 21:04 39.125323 -119.863230 174 27479ft 395kts
09-Aug-18 21:05 39.014476 -119.845398 173 28255ft 417kts
09-Aug-18 21:06 38.898844 -119.826891 172 28240ft 442kts
09-Aug-18 21:07 38.781775 -119.808122 172 28231ft 442kts
09-Aug-18 21:08 38.660052 -119.788648 172 28251ft 442kts
09-Aug-18 21:09 38.538103 -119.769186 172 28337ft 443kts
09-Aug-18 21:10 38.416531 -119.749821 172 28334ft 443kts
09-Aug-18 21:11 38.294590 -119.732535 181 28316ft 443kts
09-Aug-18 21:12 38.172834 -119.755903 188 28335ft 444kts
09-Aug-18 21:13 38.051325 -119.781043 188 28294ft 444kts
09-Aug-18 21:14 37.929710 -119.805864 188 28076ft 443kts
09-Aug-18 21:15 37.813662 -119.829386 188 27986ft 443kts
09-Aug-18 21:16 37.692517 -119.853821 188 27944ft 443kts
09-Aug-18 21:17 37.571059 -119.878214 188 27937ft 443kts
09-Aug-18 21:18 37.449577 -119.902517 188 27942ft 443kts
09-Aug-18 21:19 37.330644 -119.926233 188 27932ft 411kts
09-Aug-18 21:20 37.233007 -119.988974 235 27955ft 419kts
09-Aug-18 21:21 37.206691 -120.131587 260 26530ft 418kts
09-Aug-18 21:22 37.192364 -120.271540 260 24088ft 396kts
09-Aug-18 21:23 37.178107 -120.405243 260 21793ft 387kts
09-Aug-18 21:24 37.163806 -120.535597 260 19591ft 365kts
09-Aug-18 21:25 37.150764 -120.653123 259 18023ft 338kts
09-Aug-18 21:26 37.138271 -120.764337 259 16440ft 320kts
09-Aug-18 21:27 37.126271 -120.873129 259 14885ft 307kts
09-Aug-18 21:28 37.114811 -120.976194 259 13477ft 295kts
09-Aug-18 21:29 37.103246 -121.078948 260 12146ft 295kts
09-Aug-18 21:30 37.102822 -121.180101 277 10860ft 292kts
09-Aug-18 21:31 37.114680 -121.278690 277 9584ft 282kts
09-Aug-18 21:32 37.125889 -121.374757 277 8358ft 275kts
09-Aug-18 21:33 37.136648 -121.469149 277 7235ft 273kts
09-Aug-18 21:34 37.147128 -121.562552 277 6160ft 271kts
09-Aug-18 21:35 37.157080 -121.652010 276 5120ft 252kts
09-Aug-18 21:36 37.179387 -121.732194 316 4133ft 253kts
09-Aug-18 21:37 37.233669 -121.789627 318 2752ft 246kts
09-Aug-18 21:38 37.275984 -121.835069 318 2238ft 169kts
09-Aug-18 21:39 37.306801 -121.868712 318 1360ft 136kts
09-Aug-18 21:40 37.333834 -121.898286 318 670ft 128kts
09-Aug-18 21:41 37.360104 -121.927045 318 54ft 111kts
09-Aug-18 21:42 37.367450 -121.933667 25 45ft 0kts
09-Aug-18 21:43 37.367522 -121.933617 30 45ft 5kts
09-Aug-18 21:44 37.367109 -121.928906 137 46ft 20kts
09-Aug-18 21:45 37.365921 -121.926524 50 45ft 0kts
09-Aug-18 21:46 37.365921 -121.926524 50 45ft 0kts
09-Aug-18 21:47 37.365921 -121.926524 50 45ft 0kts
09-Aug-18 21:48 37.365921 -121.926524 50 45ft 0kts
09-Aug-18 21:49 37.365921 -121.926524 50 45ft 0kts
09-Aug-18 21:50 37.365921 -121.926524 50 45ft 0kts

Navigation Log

Ident Type
Flight plan parsing failed, navigation log unavailable